Minneapolis-St Paul International/Wold-Chamberlain Airport
KMSP : now visible

Airfield :











YOU CAN JOIN US ON...

 
LOGIN :

Register | Disclaimer

   EN    FR    IT 

 









Legend :    VFR   Marginal VFR   IFR   Intensive IFR   Very Intensive IFR
Visi :
Ceiling :
>= 8 km
>= 3000ft
5 to 8 km
1000 to 3000 ft
1500m to 5 km
500 to 1000 ft
800 to 1500m
200 to 500 ft
< 800m
< 200 ft
Symbols :   Thunderstorms  Fog  Heavy snow  Heavy precipitations  Wind > 20 kt






- Airport Elevation : 841 ft
- IATA code : MSP


KMSP - Minneapolis-St Paul International/Wold-Chamberlain

CURRENT METAR :
  • 280053Z 15006KT 10SM FEW080 BKN250 23/11 A2982 RMK AO2 SLP097 T02280106

EXPIRED METARs :
  • 272353Z 20007KT 10SM FEW080 BKN250 24/09 A2983 RMK AO2 SLP099 T02390094 10244 20200 56012
  • 272253Z 17009KT 10SM SCT250 24/09 A2984 RMK AO2 SLP102 T02390094

TAF KMSP
Valid from the 28 at 00:00 until the 29 at 06:00 UTC


272338Z 2800/2906 16007KT P6SM BKN250
FM281000 16012G20KT 6SM -SHRA OVC080
TEMPO 2810/2812 5SM -TSRA BR OVC060CB
FM281400 17016G24KT P6SM SCT060
FM290000 15007KT P6SM SCT250
KZMP FIR / North America



MET'MAP, your aeronautical weather chart ! - Copyright ORBIFLY December 2007 - Disclaimer

ORBIFLY MET'MAP TEAM :

Programming & Development : Alexandra Zaïnal
Original concept : Baudouin d'Aumeries
Technical & hardware support : Manuel Goepfert
Assistance : Marc-Olivier Méhu

Contact : metmap@orbifly.com




SOURCES & CREDITS :

   NOAA       Earth
Advisory